Time;durP1;ratioP1;P1;durP2;ratioP2;P2;SDS_P1;SDS_P2;PMS_P1;PMS_P2;Temp;Humidity;BMP_temperature;BMP_pressure;BME280_temperature;BME280_humidity;BME280_pressure;Samples;Min_cycle;Max_cycle;Signal;HPM_P1;HPM_P2
2019/05/31 00:00:31;;;;;;;3.95;3.65;;;;;;;10.71;94.48926;96157.07;;;;
2019/05/31 00:01:32;;;;;;;3.95;3.65;;;;;;;10.71;94.48926;96157.07;;;;
2019/05/31 00:02:33;;;;;;;3.95;3.65;;;;;;;10.71;94.48926;96157.07;;;;
2019/05/31 00:03:34;;;;;;;3.95;3.65;;;;;;;10.71;94.48926;96157.07;;;;
2019/05/31 00:04:35;;;;;;;3.35;3.05;;;;;;;10.71;94.71289;96146.69;;;;
2019/05/31 00:05:36;;;;;;;3.35;3.05;;;;;;;10.71;94.71289;96146.69;;;;
2019/05/31 00:06:37;;;;;;;3.35;3.05;;;;;;;10.71;94.71289;96146.69;;;;
2019/05/31 00:07:38;;;;;;;3.35;3.05;;;;;;;10.71;94.71289;96146.69;;;;
2019/05/31 00:08:39;;;;;;;3.35;3.05;;;;;;;10.71;94.71289;96146.69;;;;
2019/05/31 00:09:40;;;;;;;3.35;3.05;;;;;;;10.71;94.71289;96146.69;;;;
2019/05/31 00:10:41;;;;;;;3.35;3.05;;;;;;;10.71;94.71289;96146.69;;;;
2019/05/31 00:11:42;;;;;;;3.35;3.05;;;;;;;10.71;94.71289;96146.69;;;;
2019/05/31 00:12:43;;;;;;;3.35;3.05;;;;;;;10.71;94.71289;96146.69;;;;
2019/05/31 00:13:45;;;;;;;3.35;3.05;;;;;;;10.71;94.71289;96146.69;;;;
2019/05/31 00:14:46;;;;;;;3.35;3.05;;;;;;;10.71;94.71289;96146.69;;;;
2019/05/31 00:15:47;;;;;;;3.8;3.5;;;;;;;10.8;95.1377;96134.59;;;;
2019/05/31 00:16:48;;;;;;;3.8;3.5;;;;;;;10.8;95.1377;96134.59;;;;
2019/05/31 00:17:49;;;;;;;3.8;3.5;;;;;;;10.8;95.1377;96134.59;;;;
2019/05/31 00:18:50;;;;;;;3.8;3.5;;;;;;;10.8;95.1377;96134.59;;;;
2019/05/31 00:19:51;;;;;;;3.8;3.5;;;;;;;10.8;95.1377;96134.59;;;;
2019/05/31 00:20:52;;;;;;;3.8;3.5;;;;;;;10.8;95.1377;96134.59;;;;
2019/05/31 00:21:53;;;;;;;3.8;3.5;;;;;;;10.8;95.1377;96134.59;;;;
2019/05/31 00:22:54;;;;;;;3.8;3.5;;;;;;;10.8;95.1377;96134.59;;;;
2019/05/31 00:23:56;;;;;;;3.8;3.5;;;;;;;10.8;95.1377;96134.59;;;;
2019/05/31 00:24:57;;;;;;;3.8;3.5;;;;;;;10.8;95.1377;96134.59;;;;
2019/05/31 00:25:58;;;;;;;3.95;3.5;;;;;;;10.75;95.47656;96125.89;;;;
2019/05/31 00:26:59;;;;;;;3.95;3.5;;;;;;;10.75;95.47656;96125.89;;;;
2019/05/31 00:28:00;;;;;;;3.95;3.5;;;;;;;10.75;95.47656;96125.89;;;;
2019/05/31 00:29:01;;;;;;;3.95;3.5;;;;;;;10.75;95.47656;96125.89;;;;
2019/05/31 00:30:02;;;;;;;3.95;3.5;;;;;;;10.75;95.47656;96125.89;;;;
2019/05/31 00:31:03;;;;;;;3.95;3.5;;;;;;;10.75;95.47656;96125.89;;;;
2019/05/31 00:32:04;;;;;;;3.95;3.5;;;;;;;10.75;95.47656;96125.89;;;;
2019/05/31 00:33:05;;;;;;;3.95;3.5;;;;;;;10.75;95.47656;96125.89;;;;
2019/05/31 00:34:06;;;;;;;3.95;3.5;;;;;;;10.75;95.47656;96125.89;;;;
2019/05/31 00:35:07;;;;;;;3.95;3.5;;;;;;;10.75;95.47656;96125.89;;;;
2019/05/31 00:36:08;;;;;;;3.4;3.2;;;;;;;10.7;96.01855;96128.42;;;;
2019/05/31 00:37:10;;;;;;;3.4;3.2;;;;;;;10.7;96.01855;96128.42;;;;
2019/05/31 00:38:11;;;;;;;3.4;3.2;;;;;;;10.7;96.01855;96128.42;;;;
2019/05/31 00:39:12;;;;;;;3.4;3.2;;;;;;;10.7;96.01855;96128.42;;;;
2019/05/31 00:40:13;;;;;;;3.4;3.2;;;;;;;10.7;96.01855;96128.42;;;;
2019/05/31 00:41:14;;;;;;;3.4;3.2;;;;;;;10.7;96.01855;96128.42;;;;
2019/05/31 00:42:15;;;;;;;3.4;3.2;;;;;;;10.7;96.01855;96128.42;;;;
2019/05/31 00:43:16;;;;;;;3.4;3.2;;;;;;;10.7;96.01855;96128.42;;;;
2019/05/31 00:44:17;;;;;;;3.4;3.2;;;;;;;10.7;96.01855;96128.42;;;;
2019/05/31 00:45:18;;;;;;;3.4;3.2;;;;;;;10.7;96.01855;96128.42;;;;
2019/05/31 00:46:19;;;;;;;3.4;3.2;;;;;;;10.7;96.01855;96128.42;;;;
2019/05/31 00:47:20;;;;;;;3.699999;3.15;;;;;;;10.71;96.54199;96121.02;;;;
2019/05/31 00:48:21;;;;;;;3.699999;3.15;;;;;;;10.71;96.54199;96121.02;;;;
2019/05/31 00:49:22;;;;;;;3.699999;3.15;;;;;;;10.71;96.54199;96121.02;;;;
2019/05/31 00:50:23;;;;;;;3.699999;3.15;;;;;;;10.71;96.54199;96121.02;;;;
2019/05/31 00:51:25;;;;;;;3.699999;3.15;;;;;;;10.71;96.54199;96121.02;;;;
2019/05/31 00:52:26;;;;;;;3.699999;3.15;;;;;;;10.71;96.54199;96121.02;;;;
2019/05/31 00:53:27;;;;;;;3.699999;3.15;;;;;;;10.71;96.54199;96121.02;;;;
2019/05/31 00:54:28;;;;;;;3.699999;3.15;;;;;;;10.71;96.54199;96121.02;;;;
2019/05/31 00:55:29;;;;;;;3.699999;3.15;;;;;;;10.71;96.54199;96121.02;;;;
2019/05/31 00:56:30;;;;;;;3.699999;3.15;;;;;;;10.71;96.54199;96121.02;;;;
2019/05/31 00:57:31;;;;;;;3.699999;3.15;;;;;;;10.71;96.54199;96121.02;;;;
2019/05/31 00:58:32;;;;;;;3.699999;3.15;;;;;;;10.71;96.54199;96121.02;;;;
2019/05/31 00:59:33;;;;;;;3.699999;3.15;;;;;;;10.71;96.54199;96121.02;;;;
2019/05/31 01:00:34;;;;;;;3.699999;3.15;;;;;;;10.71;96.54199;96121.02;;;;
2019/05/31 01:01:36;;;;;;;3.699999;3.15;;;;;;;10.71;96.54199;96121.02;;;;
2019/05/31 01:02:37;;;;;;;3.699999;3.15;;;;;;;10.71;96.54199;96121.02;;;;
2019/05/31 01:03:38;;;;;;;3.699999;3.15;;;;;;;10.71;96.54199;96121.02;;;;
2019/05/31 01:04:39;;;;;;;3.699999;3.15;;;;;;;10.71;96.54199;96121.02;;;;
2019/05/31 01:05:40;;;;;;;3.699999;3.15;;;;;;;10.71;96.54199;96121.02;;;;
2019/05/31 01:06:41;;;;;;;3.699999;3.15;;;;;;;10.71;96.54199;96121.02;;;;
2019/05/31 01:07:42;;;;;;;3.699999;3.15;;;;;;;10.71;96.54199;96121.02;;;;
2019/05/31 01:08:44;;;;;;;3.8;3.15;;;;;;;11.08;96.77148;96113.4;;;;
2019/05/31 01:09:45;;;;;;;3.8;3.15;;;;;;;11.08;96.77148;96113.4;;;;
2019/05/31 01:10:46;;;;;;;3.8;3.15;;;;;;;11.08;96.77148;96113.4;;;;
2019/05/31 01:11:47;;;;;;;3.8;3.15;;;;;;;11.08;96.77148;96113.4;;;;
2019/05/31 01:12:48;;;;;;;3.8;3.15;;;;;;;11.08;96.77148;96113.4;;;;
2019/05/31 01:13:49;;;;;;;3.8;3.15;;;;;;;11.08;96.77148;96113.4;;;;
2019/05/31 01:14:50;;;;;;;3.8;3.15;;;;;;;11.08;96.77148;96113.4;;;;
2019/05/31 01:15:52;;;;;;;3.8;3.15;;;;;;;11.08;96.77148;96113.4;;;;
2019/05/31 01:16:53;;;;;;;3.8;3.15;;;;;;;11.08;96.77148;96113.4;;;;
2019/05/31 01:17:54;;;;;;;3.8;3.15;;;;;;;11.08;96.77148;96113.4;;;;
2019/05/31 01:18:55;;;;;;;3.25;3;;;;;;;11.22;97.1416;96113.31;;;;
2019/05/31 01:19:56;;;;;;;3.25;3;;;;;;;11.22;97.1416;96113.31;;;;
2019/05/31 01:20:57;;;;;;;3.25;3;;;;;;;11.22;97.1416;96113.31;;;;
2019/05/31 01:21:59;;;;;;;3.25;3;;;;;;;11.22;97.1416;96113.31;;;;
2019/05/31 01:23:00;;;;;;;3.25;3;;;;;;;11.22;97.1416;96113.31;;;;
2019/05/31 01:24:01;;;;;;;3.25;3;;;;;;;11.22;97.1416;96113.31;;;;
2019/05/31 01:25:02;;;;;;;3.25;3;;;;;;;11.22;97.1416;96113.31;;;;
2019/05/31 01:26:04;;;;;;;3.25;3;;;;;;;11.22;97.1416;96113.31;;;;
2019/05/31 01:27:05;;;;;;;3.25;3;;;;;;;11.22;97.1416;96113.31;;;;
2019/05/31 01:28:06;;;;;;;3.25;3;;;;;;;11.22;97.1416;96113.31;;;;
2019/05/31 01:29:07;;;;;;;3.25;3;;;;;;;11.22;97.1416;96113.31;;;;
2019/05/31 01:30:08;;;;;;;3.7;3.45;;;;;;;11.25;97.2666;96106.02;;;;
2019/05/31 01:31:09;;;;;;;3.7;3.45;;;;;;;11.25;97.2666;96106.02;;;;
2019/05/31 01:32:11;;;;;;;3.7;3.45;;;;;;;11.25;97.2666;96106.02;;;;
2019/05/31 01:33:12;;;;;;;3.7;3.45;;;;;;;11.25;97.2666;96106.02;;;;
2019/05/31 01:34:13;;;;;;;3.7;3.45;;;;;;;11.25;97.2666;96106.02;;;;
2019/05/31 01:35:14;;;;;;;3.7;3.45;;;;;;;11.25;97.2666;96106.02;;;;
2019/05/31 01:36:15;;;;;;;3.7;3.45;;;;;;;11.25;97.2666;96106.02;;;;
2019/05/31 01:37:16;;;;;;;3.7;3.45;;;;;;;11.25;97.2666;96106.02;;;;
2019/05/31 01:38:17;;;;;;;3.7;3.45;;;;;;;11.25;97.2666;96106.02;;;;
2019/05/31 01:39:18;;;;;;;3.7;3.45;;;;;;;11.25;97.2666;96106.02;;;;
2019/05/31 01:40:20;;;;;;;3.45;3.15;;;;;;;11.35;97.51367;96107.26;;;;
2019/05/31 01:41:21;;;;;;;3.45;3.15;;;;;;;11.35;97.51367;96107.26;;;;
2019/05/31 01:42:22;;;;;;;3.45;3.15;;;;;;;11.35;97.51367;96107.26;;;;
2019/05/31 01:43:23;;;;;;;3.45;3.15;;;;;;;11.35;97.51367;96107.26;;;;
2019/05/31 01:44:24;;;;;;;3.45;3.15;;;;;;;11.35;97.51367;96107.26;;;;
2019/05/31 01:45:25;;;;;;;3.45;3.15;;;;;;;11.35;97.51367;96107.26;;;;
2019/05/31 01:46:27;;;;;;;3.45;3.15;;;;;;;11.35;97.51367;96107.26;;;;
2019/05/31 01:47:28;;;;;;;3.45;3.15;;;;;;;11.35;97.51367;96107.26;;;;
2019/05/31 01:48:29;;;;;;;3.45;3.15;;;;;;;11.35;97.51367;96107.26;;;;
2019/05/31 01:49:30;;;;;;;3.45;3.15;;;;;;;11.35;97.51367;96107.26;;;;
2019/05/31 01:50:31;;;;;;;3.95;3.55;;;;;;;11.36;97.63281;96107.59;;;;
2019/05/31 01:51:32;;;;;;;3.95;3.55;;;;;;;11.36;97.63281;96107.59;;;;
2019/05/31 01:52:33;;;;;;;3.95;3.55;;;;;;;11.36;97.63281;96107.59;;;;
2019/05/31 01:53:34;;;;;;;3.95;3.55;;;;;;;11.36;97.63281;96107.59;;;;
2019/05/31 01:54:36;;;;;;;3.95;3.55;;;;;;;11.36;97.63281;96107.59;;;;
2019/05/31 01:55:37;;;;;;;3.95;3.55;;;;;;;11.36;97.63281;96107.59;;;;
2019/05/31 01:56:38;;;;;;;3.95;3.55;;;;;;;11.36;97.63281;96107.59;;;;
2019/05/31 01:57:39;;;;;;;3.95;3.55;;;;;;;11.36;97.63281;96107.59;;;;
2019/05/31 01:58:40;;;;;;;3.95;3.55;;;;;;;11.36;97.63281;96107.59;;;;
2019/05/31 01:59:41;;;;;;;3.95;3.55;;;;;;;11.36;97.63281;96107.59;;;;
2019/05/31 02:00:42;;;;;;;3.95;3.55;;;;;;;11.36;97.63281;96107.59;;;;
2019/05/31 02:01:44;;;;;;;3.95;3.55;;;;;;;11.36;97.63281;96107.59;;;;
2019/05/31 02:02:45;;;;;;;3.95;3.55;;;;;;;11.36;97.63281;96107.59;;;;
2019/05/31 02:03:46;;;;;;;3.95;3.55;;;;;;;11.36;97.63281;96107.59;;;;
2019/05/31 02:04:47;;;;;;;3.95;3.55;;;;;;;11.36;97.63281;96107.59;;;;
2019/05/31 02:05:48;;;;;;;3.95;3.55;;;;;;;11.36;97.63281;96107.59;;;;
2019/05/31 02:06:49;;;;;;;3.95;3.55;;;;;;;11.36;97.63281;96107.59;;;;
2019/05/31 02:07:50;;;;;;;3.95;3.55;;;;;;;11.36;97.63281;96107.59;;;;
2019/05/31 02:08:52;;;;;;;3.95;3.55;;;;;;;11.36;97.63281;96107.59;;;;
2019/05/31 02:09:53;;;;;;;3.95;3.55;;;;;;;11.36;97.63281;96107.59;;;;
2019/05/31 02:10:54;;;;;;;3.95;3.55;;;;;;;11.36;97.63281;96107.59;;;;
2019/05/31 02:11:55;;;;;;;3.25;2.95;;;;;;;11.44;97.92676;96106.49;;;;
2019/05/31 02:12:56;;;;;;;3.25;2.95;;;;;;;11.44;97.92676;96106.49;;;;
2019/05/31 02:13:57;;;;;;;3.25;2.95;;;;;;;11.44;97.92676;96106.49;;;;
2019/05/31 02:14:58;;;;;;;3.25;2.95;;;;;;;11.44;97.92676;96106.49;;;;
2019/05/31 02:15:59;;;;;;;3.25;2.95;;;;;;;11.44;97.92676;96106.49;;;;
2019/05/31 02:17:01;;;;;;;3.25;2.95;;;;;;;11.44;97.92676;96106.49;;;;
2019/05/31 02:18:02;;;;;;;3.25;2.95;;;;;;;11.44;97.92676;96106.49;;;;
2019/05/31 02:19:03;;;;;;;3.25;2.95;;;;;;;11.44;97.92676;96106.49;;;;
2019/05/31 02:20:04;;;;;;;3.25;2.95;;;;;;;11.44;97.92676;96106.49;;;;
2019/05/31 02:21:05;;;;;;;3.25;2.95;;;;;;;11.44;97.92676;96106.49;;;;
2019/05/31 02:22:06;;;;;;;3.25;2.95;;;;;;;11.44;97.92676;96106.49;;;;
2019/05/31 02:23:08;;;;;;;3.95;3.25;;;;;;;11.55;98.01563;96104.42;;;;
2019/05/31 02:24:09;;;;;;;3.95;3.25;;;;;;;11.55;98.01563;96104.42;;;;
2019/05/31 02:25:10;;;;;;;3.95;3.25;;;;;;;11.55;98.01563;96104.42;;;;
2019/05/31 02:26:11;;;;;;;3.95;3.25;;;;;;;11.55;98.01563;96104.42;;;;
2019/05/31 02:27:12;;;;;;;3.95;3.25;;;;;;;11.55;98.01563;96104.42;;;;
2019/05/31 02:28:13;;;;;;;3.95;3.25;;;;;;;11.55;98.01563;96104.42;;;;
2019/05/31 02:29:14;;;;;;;3.95;3.25;;;;;;;11.55;98.01563;96104.42;;;;
2019/05/31 02:30:16;;;;;;;3.95;3.25;;;;;;;11.55;98.01563;96104.42;;;;
2019/05/31 02:31:17;;;;;;;3.95;3.25;;;;;;;11.55;98.01563;96104.42;;;;
2019/05/31 02:32:18;;;;;;;3.95;3.25;;;;;;;11.55;98.01563;96104.42;;;;
2019/05/31 02:33:19;;;;;;;3.5;3;;;;;;;11.59;98.10938;96106.45;;;;
2019/05/31 02:34:21;;;;;;;3.5;3;;;;;;;11.59;98.10938;96106.45;;;;
2019/05/31 02:35:22;;;;;;;3.5;3;;;;;;;11.59;98.10938;96106.45;;;;
2019/05/31 02:36:23;;;;;;;3.5;3;;;;;;;11.59;98.10938;96106.45;;;;
2019/05/31 02:37:24;;;;;;;3.5;3;;;;;;;11.59;98.10938;96106.45;;;;
2019/05/31 02:38:25;;;;;;;3.5;3;;;;;;;11.59;98.10938;96106.45;;;;
2019/05/31 02:39:26;;;;;;;3.5;3;;;;;;;11.59;98.10938;96106.45;;;;
2019/05/31 02:40:27;;;;;;;3.5;3;;;;;;;11.59;98.10938;96106.45;;;;
2019/05/31 02:41:28;;;;;;;3.5;3;;;;;;;11.59;98.10938;96106.45;;;;
2019/05/31 02:42:30;;;;;;;3.5;3;;;;;;;11.59;98.10938;96106.45;;;;
2019/05/31 02:43:31;;;;;;;3.1;2.9;;;;;;;11.69;98.19629;96104.08;;;;
2019/05/31 02:44:32;;;;;;;3.1;2.9;;;;;;;11.69;98.19629;96104.08;;;;
2019/05/31 02:45:33;;;;;;;3.1;2.9;;;;;;;11.69;98.19629;96104.08;;;;
2019/05/31 02:46:34;;;;;;;3.1;2.9;;;;;;;11.69;98.19629;96104.08;;;;
2019/05/31 02:47:35;;;;;;;3.1;2.9;;;;;;;11.69;98.19629;96104.08;;;;
2019/05/31 02:48:36;;;;;;;3.1;2.9;;;;;;;11.69;98.19629;96104.08;;;;
2019/05/31 02:49:37;;;;;;;3.1;2.9;;;;;;;11.69;98.19629;96104.08;;;;
2019/05/31 02:50:38;;;;;;;3.1;2.9;;;;;;;11.69;98.19629;96104.08;;;;
2019/05/31 02:51:40;;;;;;;3.1;2.9;;;;;;;11.69;98.19629;96104.08;;;;
2019/05/31 02:52:41;;;;;;;3.1;2.9;;;;;;;11.69;98.19629;96104.08;;;;
2019/05/31 02:53:42;;;;;;;3.1;2.9;;;;;;;11.69;98.19629;96104.08;;;;
2019/05/31 02:54:43;;;;;;;3.1;2.9;;;;;;;11.69;98.19629;96104.08;;;;
2019/05/31 02:55:44;;;;;;;3.1;2.9;;;;;;;11.69;98.19629;96104.08;;;;
2019/05/31 02:56:45;;;;;;;3.1;2.9;;;;;;;11.69;98.19629;96104.08;;;;
2019/05/31 02:57:46;;;;;;;3.1;2.9;;;;;;;11.69;98.19629;96104.08;;;;
2019/05/31 02:58:47;;;;;;;3.1;2.9;;;;;;;11.69;98.19629;96104.08;;;;
2019/05/31 02:59:48;;;;;;;3.1;2.9;;;;;;;11.69;98.19629;96104.08;;;;
2019/05/31 03:00:50;;;;;;;3.1;2.9;;;;;;;11.69;98.19629;96104.08;;;;
2019/05/31 03:01:51;;;;;;;3.1;2.9;;;;;;;11.69;98.19629;96104.08;;;;
2019/05/31 03:02:52;;;;;;;3.1;2.9;;;;;;;11.69;98.19629;96104.08;;;;
2019/05/31 03:03:54;;;;;;;3.1;2.9;;;;;;;11.69;98.19629;96104.08;;;;
2019/05/31 03:04:55;;;;;;;2.95;2.750001;;;;;;;11.82;98.12793;96111.24;;;;
2019/05/31 03:05:56;;;;;;;2.95;2.750001;;;;;;;11.82;98.12793;96111.24;;;;
2019/05/31 03:06:57;;;;;;;2.95;2.750001;;;;;;;11.82;98.12793;96111.24;;;;
2019/05/31 03:07:58;;;;;;;2.95;2.750001;;;;;;;11.82;98.12793;96111.24;;;;
2019/05/31 03:08:59;;;;;;;2.95;2.750001;;;;;;;11.82;98.12793;96111.24;;;;
2019/05/31 03:10:00;;;;;;;2.95;2.750001;;;;;;;11.82;98.12793;96111.24;;;;
2019/05/31 03:11:01;;;;;;;2.95;2.750001;;;;;;;11.82;98.12793;96111.24;;;;
2019/05/31 03:12:02;;;;;;;2.95;2.750001;;;;;;;11.82;98.12793;96111.24;;;;
2019/05/31 03:13:03;;;;;;;2.95;2.750001;;;;;;;11.82;98.12793;96111.24;;;;
2019/05/31 03:14:04;;;;;;;2.95;2.750001;;;;;;;11.82;98.12793;96111.24;;;;
2019/05/31 03:15:06;;;;;;;2.95;2.750001;;;;;;;11.82;98.12793;96111.24;;;;
2019/05/31 03:16:07;;;;;;;3.2;3;;;;;;;11.84;98.03613;96107.37;;;;
2019/05/31 03:17:08;;;;;;;3.2;3;;;;;;;11.84;98.03613;96107.37;;;;
2019/05/31 03:18:09;;;;;;;3.2;3;;;;;;;11.84;98.03613;96107.37;;;;
2019/05/31 03:19:10;;;;;;;3.2;3;;;;;;;11.84;98.03613;96107.37;;;;
2019/05/31 03:20:11;;;;;;;3.2;3;;;;;;;11.84;98.03613;96107.37;;;;
2019/05/31 03:21:12;;;;;;;3.2;3;;;;;;;11.84;98.03613;96107.37;;;;
2019/05/31 03:22:13;;;;;;;3.2;3;;;;;;;11.84;98.03613;96107.37;;;;
2019/05/31 03:23:14;;;;;;;3.2;3;;;;;;;11.84;98.03613;96107.37;;;;
2019/05/31 03:24:15;;;;;;;3.2;3;;;;;;;11.84;98.03613;96107.37;;;;
2019/05/31 03:25:16;;;;;;;3.2;3;;;;;;;11.84;98.03613;96107.37;;;;
2019/05/31 03:26:17;;;;;;;3.2;3;;;;;;;11.84;98.03613;96107.37;;;;
2019/05/31 03:27:18;;;;;;;3.2;3;;;;;;;11.84;98.03613;96107.37;;;;
2019/05/31 03:28:19;;;;;;;3.2;3;;;;;;;11.84;98.03613;96107.37;;;;
2019/05/31 03:29:20;;;;;;;3.2;3;;;;;;;11.84;98.03613;96107.37;;;;
2019/05/31 03:30:21;;;;;;;3.2;3;;;;;;;11.84;98.03613;96107.37;;;;
2019/05/31 03:31:23;;;;;;;3.2;3;;;;;;;11.84;98.03613;96107.37;;;;
2019/05/31 03:32:24;;;;;;;3.2;3;;;;;;;11.84;98.03613;96107.37;;;;
2019/05/31 03:33:25;;;;;;;3.2;3;;;;;;;11.84;98.03613;96107.37;;;;
2019/05/31 03:34:26;;;;;;;3.2;3;;;;;;;11.84;98.03613;96107.37;;;;
2019/05/31 03:35:27;;;;;;;3.2;3;;;;;;;11.84;98.03613;96107.37;;;;
2019/05/31 03:36:28;;;;;;;3.25;3.05;;;;;;;11.92;98.17188;96109.8;;;;
2019/05/31 03:37:29;;;;;;;3.25;3.05;;;;;;;11.92;98.17188;96109.8;;;;
2019/05/31 03:38:30;;;;;;;3.25;3.05;;;;;;;11.92;98.17188;96109.8;;;;
2019/05/31 03:39:32;;;;;;;3.25;3.05;;;;;;;11.92;98.17188;96109.8;;;;
2019/05/31 03:40:33;;;;;;;3.25;3.05;;;;;;;11.92;98.17188;96109.8;;;;
2019/05/31 03:41:34;;;;;;;3.25;3.05;;;;;;;11.92;98.17188;96109.8;;;;
2019/05/31 03:42:35;;;;;;;3.25;3.05;;;;;;;11.92;98.17188;96109.8;;;;
2019/05/31 03:43:36;;;;;;;3.25;3.05;;;;;;;11.92;98.17188;96109.8;;;;
2019/05/31 03:44:37;;;;;;;3.25;3.05;;;;;;;11.92;98.17188;96109.8;;;;
2019/05/31 03:45:38;;;;;;;3.25;3.05;;;;;;;11.92;98.17188;96109.8;;;;
2019/05/31 03:46:39;;;;;;;3.25;3.05;;;;;;;11.92;98.17188;96109.8;;;;
2019/05/31 03:47:40;;;;;;;4.549999;3.2;;;;;;;11.99;98.38086;96115.88;;;;
2019/05/31 03:48:41;;;;;;;4.549999;3.2;;;;;;;11.99;98.38086;96115.88;;;;
2019/05/31 03:49:42;;;;;;;4.549999;3.2;;;;;;;11.99;98.38086;96115.88;;;;
2019/05/31 03:50:43;;;;;;;4.549999;3.2;;;;;;;11.99;98.38086;96115.88;;;;
2019/05/31 03:51:44;;;;;;;4.549999;3.2;;;;;;;11.99;98.38086;96115.88;;;;
2019/05/31 03:52:45;;;;;;;4.549999;3.2;;;;;;;11.99;98.38086;96115.88;;;;
2019/05/31 03:53:46;;;;;;;4.549999;3.2;;;;;;;11.99;98.38086;96115.88;;;;
2019/05/31 03:54:47;;;;;;;4.549999;3.2;;;;;;;11.99;98.38086;96115.88;;;;
2019/05/31 03:55:48;;;;;;;4.549999;3.2;;;;;;;11.99;98.38086;96115.88;;;;
2019/05/31 03:56:49;;;;;;;4.549999;3.2;;;;;;;11.99;98.38086;96115.88;;;;
2019/05/31 03:57:50;;;;;;;3.2;2.9;;;;;;;12;98.39355;96122.93;;;;
2019/05/31 03:58:52;;;;;;;3.2;2.9;;;;;;;12;98.39355;96122.93;;;;
2019/05/31 03:59:53;;;;;;;3.2;2.9;;;;;;;12;98.39355;96122.93;;;;
2019/05/31 04:00:54;;;;;;;3.2;2.9;;;;;;;12;98.39355;96122.93;;;;
2019/05/31 04:01:55;;;;;;;3.2;2.9;;;;;;;12;98.39355;96122.93;;;;
2019/05/31 04:02:56;;;;;;;3.2;2.9;;;;;;;12;98.39355;96122.93;;;;
2019/05/31 04:03:57;;;;;;;3.2;2.9;;;;;;;12;98.39355;96122.93;;;;
2019/05/31 04:04:58;;;;;;;3.2;2.9;;;;;;;12;98.39355;96122.93;;;;
2019/05/31 04:05:59;;;;;;;3.2;2.9;;;;;;;12;98.39355;96122.93;;;;
2019/05/31 04:07:00;;;;;;;3.2;2.9;;;;;;;12;98.39355;96122.93;;;;
2019/05/31 04:08:01;;;;;;;3.2;2.9;;;;;;;12;98.39355;96122.93;;;;
2019/05/31 04:09:03;;;;;;;3.1;2.75;;;;;;;12.08;98.49512;96124;;;;
2019/05/31 04:10:05;;;;;;;3.1;2.75;;;;;;;12.08;98.49512;96124;;;;
2019/05/31 04:11:06;;;;;;;3.1;2.75;;;;;;;12.08;98.49512;96124;;;;
2019/05/31 04:12:07;;;;;;;3.1;2.75;;;;;;;12.08;98.49512;96124;;;;
2019/05/31 04:13:08;;;;;;;3.1;2.75;;;;;;;12.08;98.49512;96124;;;;
2019/05/31 04:14:09;;;;;;;3.1;2.75;;;;;;;12.08;98.49512;96124;;;;
2019/05/31 04:15:10;;;;;;;3.1;2.75;;;;;;;12.08;98.49512;96124;;;;
2019/05/31 04:16:11;;;;;;;3.1;2.75;;;;;;;12.08;98.49512;96124;;;;
2019/05/31 04:17:12;;;;;;;3.1;2.75;;;;;;;12.08;98.49512;96124;;;;
2019/05/31 04:18:13;;;;;;;3.1;2.75;;;;;;;12.08;98.49512;96124;;;;
2019/05/31 04:19:14;;;;;;;4.15;3.15;;;;;;;12.11;98.5;96125.97;;;;
2019/05/31 04:20:15;;;;;;;4.15;3.15;;;;;;;12.11;98.5;96125.97;;;;
2019/05/31 04:21:16;;;;;;;4.15;3.15;;;;;;;12.11;98.5;96125.97;;;;
2019/05/31 04:22:18;;;;;;;4.15;3.15;;;;;;;12.11;98.5;96125.97;;;;
2019/05/31 04:23:19;;;;;;;4.15;3.15;;;;;;;12.11;98.5;96125.97;;;;
2019/05/31 04:24:20;;;;;;;4.15;3.15;;;;;;;12.11;98.5;96125.97;;;;
2019/05/31 04:25:21;;;;;;;4.15;3.15;;;;;;;12.11;98.5;96125.97;;;;
2019/05/31 04:26:22;;;;;;;4.15;3.15;;;;;;;12.11;98.5;96125.97;;;;
2019/05/31 04:27:23;;;;;;;4.15;3.15;;;;;;;12.11;98.5;96125.97;;;;
2019/05/31 04:28:24;;;;;;;4.15;3.15;;;;;;;12.11;98.5;96125.97;;;;
2019/05/31 04:29:25;;;;;;;3.5;3.2;;;;;;;12.21;98.82324;96135.63;;;;
2019/05/31 04:30:26;;;;;;;3.5;3.2;;;;;;;12.21;98.82324;96135.63;;;;
2019/05/31 04:31:27;;;;;;;3.5;3.2;;;;;;;12.21;98.82324;96135.63;;;;
2019/05/31 04:32:29;;;;;;;3.5;3.2;;;;;;;12.21;98.82324;96135.63;;;;
2019/05/31 04:33:30;;;;;;;3.5;3.2;;;;;;;12.21;98.82324;96135.63;;;;
2019/05/31 04:34:31;;;;;;;3.5;3.2;;;;;;;12.21;98.82324;96135.63;;;;
2019/05/31 04:35:32;;;;;;;3.5;3.2;;;;;;;12.21;98.82324;96135.63;;;;
2019/05/31 04:36:33;;;;;;;3.5;3.2;;;;;;;12.21;98.82324;96135.63;;;;
2019/05/31 04:37:34;;;;;;;3.5;3.2;;;;;;;12.21;98.82324;96135.63;;;;
2019/05/31 04:38:35;;;;;;;3.5;3.2;;;;;;;12.21;98.82324;96135.63;;;;
2019/05/31 04:39:36;;;;;;;3.5;3.2;;;;;;;12.21;98.82324;96135.63;;;;
2019/05/31 04:40:37;;;;;;;3.3;3;;;;;;;12.24;98.77637;96151.42;;;;
2019/05/31 04:41:38;;;;;;;3.3;3;;;;;;;12.24;98.77637;96151.42;;;;
2019/05/31 04:42:39;;;;;;;3.3;3;;;;;;;12.24;98.77637;96151.42;;;;
2019/05/31 04:43:40;;;;;;;3.3;3;;;;;;;12.24;98.77637;96151.42;;;;
2019/05/31 04:44:41;;;;;;;3.3;3;;;;;;;12.24;98.77637;96151.42;;;;
2019/05/31 04:45:42;;;;;;;3.3;3;;;;;;;12.24;98.77637;96151.42;;;;
2019/05/31 04:46:44;;;;;;;3.3;3;;;;;;;12.24;98.77637;96151.42;;;;
2019/05/31 04:47:45;;;;;;;3.3;3;;;;;;;12.24;98.77637;96151.42;;;;
2019/05/31 04:48:46;;;;;;;3.3;3;;;;;;;12.24;98.77637;96151.42;;;;
2019/05/31 04:49:47;;;;;;;3.3;3;;;;;;;12.24;98.77637;96151.42;;;;
2019/05/31 04:50:48;;;;;;;4.05;3.05;;;;;;;12.35;98.94043;96146.19;;;;
2019/05/31 04:51:49;;;;;;;4.05;3.05;;;;;;;12.35;98.94043;96146.19;;;;
2019/05/31 04:52:50;;;;;;;4.05;3.05;;;;;;;12.35;98.94043;96146.19;;;;
2019/05/31 04:53:51;;;;;;;4.05;3.05;;;;;;;12.35;98.94043;96146.19;;;;
2019/05/31 04:54:52;;;;;;;4.05;3.05;;;;;;;12.35;98.94043;96146.19;;;;
2019/05/31 04:55:53;;;;;;;4.05;3.05;;;;;;;12.35;98.94043;96146.19;;;;
2019/05/31 04:56:54;;;;;;;4.05;3.05;;;;;;;12.35;98.94043;96146.19;;;;
2019/05/31 04:57:55;;;;;;;4.05;3.05;;;;;;;12.35;98.94043;96146.19;;;;
2019/05/31 04:58:56;;;;;;;4.05;3.05;;;;;;;12.35;98.94043;96146.19;;;;
2019/05/31 04:59:57;;;;;;;4.05;3.05;;;;;;;12.35;98.94043;96146.19;;;;
2019/05/31 05:00:59;;;;;;;4.05;3.05;;;;;;;12.35;98.94043;96146.19;;;;
2019/05/31 05:02:00;;;;;;;3.85;3.55;;;;;;;12.4;98.9082;96150.81;;;;
2019/05/31 05:03:01;;;;;;;3.85;3.55;;;;;;;12.4;98.9082;96150.81;;;;
2019/05/31 05:04:02;;;;;;;3.85;3.55;;;;;;;12.4;98.9082;96150.81;;;;
2019/05/31 05:05:03;;;;;;;3.85;3.55;;;;;;;12.4;98.9082;96150.81;;;;
2019/05/31 05:06:04;;;;;;;3.85;3.55;;;;;;;12.4;98.9082;96150.81;;;;
2019/05/31 05:07:05;;;;;;;3.85;3.55;;;;;;;12.4;98.9082;96150.81;;;;
2019/05/31 05:08:06;;;;;;;3.85;3.55;;;;;;;12.4;98.9082;96150.81;;;;
2019/05/31 05:09:07;;;;;;;3.85;3.55;;;;;;;12.4;98.9082;96150.81;;;;
2019/05/31 05:10:08;;;;;;;3.85;3.55;;;;;;;12.4;98.9082;96150.81;;;;
2019/05/31 05:11:10;;;;;;;3.85;3.55;;;;;;;12.4;98.9082;96150.81;;;;
2019/05/31 05:12:11;;;;;;;3.5;3.2;;;;;;;12.57;99.1709;96151.98;;;;
2019/05/31 05:13:12;;;;;;;3.5;3.2;;;;;;;12.57;99.1709;96151.98;;;;
2019/05/31 05:14:13;;;;;;;3.5;3.2;;;;;;;12.57;99.1709;96151.98;;;;
2019/05/31 05:15:14;;;;;;;3.5;3.2;;;;;;;12.57;99.1709;96151.98;;;;
2019/05/31 05:16:15;;;;;;;3.5;3.2;;;;;;;12.57;99.1709;96151.98;;;;
2019/05/31 05:17:16;;;;;;;3.5;3.2;;;;;;;12.57;99.1709;96151.98;;;;
2019/05/31 05:18:18;;;;;;;3.5;3.2;;;;;;;12.57;99.1709;96151.98;;;;
2019/05/31 05:19:19;;;;;;;3.5;3.2;;;;;;;12.57;99.1709;96151.98;;;;
2019/05/31 05:20:20;;;;;;;3.5;3.2;;;;;;;12.57;99.1709;96151.98;;;;
2019/05/31 05:21:21;;;;;;;3.5;3.2;;;;;;;12.57;99.1709;96151.98;;;;
2019/05/31 05:22:22;;;;;;;3.5;3.2;;;;;;;12.57;99.1709;96151.98;;;;
2019/05/31 05:23:23;;;;;;;3.5;3.2;;;;;;;12.57;99.1709;96151.98;;;;
2019/05/31 05:24:24;;;;;;;3.5;3.2;;;;;;;12.57;99.1709;96151.98;;;;
2019/05/31 05:25:25;;;;;;;3.5;3.2;;;;;;;12.57;99.1709;96151.98;;;;
2019/05/31 05:26:26;;;;;;;3.5;3.2;;;;;;;12.57;99.1709;96151.98;;;;
2019/05/31 05:27:27;;;;;;;3.5;3.2;;;;;;;12.57;99.1709;96151.98;;;;
2019/05/31 05:28:28;;;;;;;3.5;3.2;;;;;;;12.57;99.1709;96151.98;;;;
2019/05/31 05:29:29;;;;;;;3.5;3.2;;;;;;;12.57;99.1709;96151.98;;;;
2019/05/31 05:30:30;;;;;;;3.5;3.2;;;;;;;12.57;99.1709;96151.98;;;;
2019/05/31 05:31:31;;;;;;;3.5;3.2;;;;;;;12.57;99.1709;96151.98;;;;
2019/05/31 05:32:32;;;;;;;3.5;3.2;;;;;;;12.57;99.1709;96151.98;;;;
2019/05/31 05:33:34;;;;;;;3.1;2.9;;;;;;;12.75;99.25391;96160.52;;;;
2019/05/31 05:34:35;;;;;;;3.1;2.9;;;;;;;12.75;99.25391;96160.52;;;;
2019/05/31 05:35:36;;;;;;;3.1;2.9;;;;;;;12.75;99.25391;96160.52;;;;
2019/05/31 05:36:37;;;;;;;3.1;2.9;;;;;;;12.75;99.25391;96160.52;;;;
2019/05/31 05:37:38;;;;;;;3.1;2.9;;;;;;;12.75;99.25391;96160.52;;;;
2019/05/31 05:38:39;;;;;;;3.1;2.9;;;;;;;12.75;99.25391;96160.52;;;;
2019/05/31 05:39:40;;;;;;;3.1;2.9;;;;;;;12.75;99.25391;96160.52;;;;
2019/05/31 05:40:41;;;;;;;3.1;2.9;;;;;;;12.75;99.25391;96160.52;;;;
2019/05/31 05:41:42;;;;;;;3.1;2.9;;;;;;;12.75;99.25391;96160.52;;;;
2019/05/31 05:42:43;;;;;;;3.1;2.9;;;;;;;12.75;99.25391;96160.52;;;;
2019/05/31 05:43:44;;;;;;;3.3;3;;;;;;;12.83;99.30469;96168.31;;;;
2019/05/31 05:44:45;;;;;;;3.3;3;;;;;;;12.83;99.30469;96168.31;;;;
2019/05/31 05:45:46;;;;;;;3.3;3;;;;;;;12.83;99.30469;96168.31;;;;
2019/05/31 05:46:47;;;;;;;3.3;3;;;;;;;12.83;99.30469;96168.31;;;;
2019/05/31 05:47:49;;;;;;;3.3;3;;;;;;;12.83;99.30469;96168.31;;;;
2019/05/31 05:48:50;;;;;;;3.3;3;;;;;;;12.83;99.30469;96168.31;;;;
2019/05/31 05:49:51;;;;;;;3.3;3;;;;;;;12.83;99.30469;96168.31;;;;
2019/05/31 05:50:52;;;;;;;3.3;3;;;;;;;12.83;99.30469;96168.31;;;;
2019/05/31 05:51:53;;;;;;;3.3;3;;;;;;;12.83;99.30469;96168.31;;;;
2019/05/31 05:52:54;;;;;;;3.3;3;;;;;;;12.83;99.30469;96168.31;;;;